Terminal Aerodrome Forecast
Issued by NWS

Home | Current Version | Previous Version | Text Only | Print | Product List | Glossary On
Versions: 1 2 3 4 5 6 7 8 9 10 11 12 13 14
000
FTUS45 KRIW 222300
TAFJAC
TAF
KJAC 222324Z 2300/2324 20007KT P6SM SCT090
     FM230200 VRB06KT P6SM SCT150
     FM231700 21007KT P6SM SCT150
     FM232000 19015G25KT P6SM SCT100 BKN200
      AMD LTD TO CLD VIS AND WIND=

USA.gov is the U.S. government's official web portal to all federal, state and local government web resources and services.